Aeroporto :
LOGIN :

Iscrizione | Disclaimer

   EN    FR    IT 

 










Sommario :    VFR   VFR Marginale   IFR   IFR Intensivo   IFR Molto Intensivo
Visibilità : 
Base nubi : 
>= 8 km
>= 3000ft
5 / 8 km
1000 / 3000 ft
1500m / 5 km
500 / 1000 ft
800 / 1500m
200 / 500 ft
< 800m
< 200 ft
Simboli :   Temporali  Nebbia  Neve Forte  Precipitazioni Forti  Vento > 20 kt
SIGMETs :   Varie  Temporali  Ghiacco  Turbolenza  Onda orograficha  Ceneri Vulcaniche







- Altitudine del aeroporto : 436 ft
- Codice IATA : BTS


LZIB - Bratislava

ULTIMO METAR :
  • 201230Z 22003KT 160V280 9999 FEW033 BKN043 11/01 Q1023 NOSIG

METARs OBSOLETI :
  • 201200Z 23005KT 9999 FEW028 SCT047 09/02 Q1024 NOSIG
  • 201130Z 31006KT 270V340 9999 FEW028 09/02 Q1024 NOSIG
  • 201100Z 30007KT 9999 FEW026 09/02 Q1024 NOSIG
  • 201030Z 31010KT 9999 FEW024 07/01 Q1024 NOSIG
  • 201000Z 31012KT CAVOK 07/01 Q1024 NOSIG

TAF AMD TAF LZIB
Valido dal 20 a 12 ore il 21 a 12 ore UTC


201232Z 2012/2112 31011KT 9999 SCT034 BKN043
BECMG 2016/2018 CAVOK
BECMG 2023/2101 27004KT
Nessun NOTAM noto per questo aeroporto.



MetMap, La meteo Aeronautica in un colpo d'occhio ! - Copyright ORBIFLY Dicembre 2007 - Disclaimer

ORBIFLY MET'MAP TEAM :

Programmazione e sviluppo : Alexandra Zaïnal
Concezione e sviluppo : Baudouin d'Aumeries
Co-Programmazione e sviluppo : Marc-Olivier Méhu
Supporto tecnico e logistico : Manuel Goepfert
Aiuto per la traduzione : Arnaldo La Scala

Contatto : metmap@orbifly.com




FONTI E CREDITI :

   NOAA